sensor_id;sensor_type;location;lat;lon;timestamp;temperature;humidity
28358;DHT22;15605;48.114;11.522;2024-03-29T00:08:51;12.30;54.20
28358;DHT22;15605;48.114;11.522;2024-03-29T00:11:31;12.30;54.20
28358;DHT22;15605;48.114;11.522;2024-03-29T00:14:06;12.30;54.30
28358;DHT22;15605;48.114;11.522;2024-03-29T00:16:45;12.40;54.30
28358;DHT22;15605;48.114;11.522;2024-03-29T00:28:37;12.30;54.20
28358;DHT22;15605;48.114;11.522;2024-03-29T00:31:40;12.30;54.20
28358;DHT22;15605;48.114;11.522;2024-03-29T00:34:26;12.30;54.20
28358;DHT22;15605;48.114;11.522;2024-03-29T00:40:24;12.30;54.30
28358;DHT22;15605;48.114;11.522;2024-03-29T00:46:06;12.30;54.20
28358;DHT22;15605;48.114;11.522;2024-03-29T00:48:37;12.30;54.30
28358;DHT22;15605;48.114;11.522;2024-03-29T00:51:07;12.30;54.30
28358;DHT22;15605;48.114;11.522;2024-03-29T00:53:37;12.30;54.20
28358;DHT22;15605;48.114;11.522;2024-03-29T00:59:36;12.30;54.00
28358;DHT22;15605;48.114;11.522;2024-03-29T01:14:47;12.40;53.90
28358;DHT22;15605;48.114;11.522;2024-03-29T01:17:34;12.30;53.80
28358;DHT22;15605;48.114;11.522;2024-03-29T01:20:14;12.30;53.70
28358;DHT22;15605;48.114;11.522;2024-03-29T01:23:02;12.30;53.70
28358;DHT22;15605;48.114;11.522;2024-03-29T01:28:27;12.20;53.70
28358;DHT22;15605;48.114;11.522;2024-03-29T01:34:27;12.30;53.80
28358;DHT22;15605;48.114;11.522;2024-03-29T01:47:38;12.20;53.70
28358;DHT22;15605;48.114;11.522;2024-03-29T01:50:07;12.20;53.70
28358;DHT22;15605;48.114;11.522;2024-03-29T01:52:45;12.20;53.70
28358;DHT22;15605;48.114;11.522;2024-03-29T02:01:39;12.20;53.80
28358;DHT22;15605;48.114;11.522;2024-03-29T02:04:12;12.20;53.80
28358;DHT22;15605;48.114;11.522;2024-03-29T02:17:06;12.20;53.90
28358;DHT22;15605;48.114;11.522;2024-03-29T02:26:34;12.20;53.80
28358;DHT22;15605;48.114;11.522;2024-03-29T02:29:25;12.20;53.70
28358;DHT22;15605;48.114;11.522;2024-03-29T02:32:16;12.20;53.70
28358;DHT22;15605;48.114;11.522;2024-03-29T02:37:45;12.20;53.90
28358;DHT22;15605;48.114;11.522;2024-03-29T02:43:12;12.20;53.90
28358;DHT22;15605;48.114;11.522;2024-03-29T02:46:00;12.20;53.70
28358;DHT22;15605;48.114;11.522;2024-03-29T02:54:38;12.20;53.80
28358;DHT22;15605;48.114;11.522;2024-03-29T02:57:35;12.10;53.80
28358;DHT22;15605;48.114;11.522;2024-03-29T03:03:36;12.20;53.70
28358;DHT22;15605;48.114;11.522;2024-03-29T03:09:47;12.20;53.70
28358;DHT22;15605;48.114;11.522;2024-03-29T03:13:08;12.20;53.70
28358;DHT22;15605;48.114;11.522;2024-03-29T03:18:32;12.20;53.60
28358;DHT22;15605;48.114;11.522;2024-03-29T03:21:04;12.10;53.60
28358;DHT22;15605;48.114;11.522;2024-03-29T03:33:55;12.10;53.50
28358;DHT22;15605;48.114;11.522;2024-03-29T03:39:54;12.20;53.40
28358;DHT22;15605;48.114;11.522;2024-03-29T03:46:11;12.20;53.40
28358;DHT22;15605;48.114;11.522;2024-03-29T03:55:05;12.20;53.30
28358;DHT22;15605;48.114;11.522;2024-03-29T04:00:31;12.10;53.40
28358;DHT22;15605;48.114;11.522;2024-03-29T04:05:58;12.20;53.40
28358;DHT22;15605;48.114;11.522;2024-03-29T04:15:30;12.10;53.30
28358;DHT22;15605;48.114;11.522;2024-03-29T04:21:39;12.20;53.10
28358;DHT22;15605;48.114;11.522;2024-03-29T04:24:21;12.20;53.20
28358;DHT22;15605;48.114;11.522;2024-03-29T04:27:37;12.20;53.20
28358;DHT22;15605;48.114;11.522;2024-03-29T04:30:08;12.20;53.30
28358;DHT22;15605;48.114;11.522;2024-03-29T04:35:36;12.10;53.20
28358;DHT22;15605;48.114;11.522;2024-03-29T04:39:00;12.20;53.20
28358;DHT22;15605;48.114;11.522;2024-03-29T04:41:29;12.10;53.20
28358;DHT22;15605;48.114;11.522;2024-03-29T04:44:07;12.10;53.20
28358;DHT22;15605;48.114;11.522;2024-03-29T04:56:08;12.10;53.30
28358;DHT22;15605;48.114;11.522;2024-03-29T05:02:11;12.10;53.30
28358;DHT22;15605;48.114;11.522;2024-03-29T05:24:18;12.20;53.20
28358;DHT22;15605;48.114;11.522;2024-03-29T05:36:31;12.20;53.10
28358;DHT22;15605;48.114;11.522;2024-03-29T05:42:13;12.20;53.10
28358;DHT22;15605;48.114;11.522;2024-03-29T05:44:51;12.20;53.10
28358;DHT22;15605;48.114;11.522;2024-03-29T05:50:57;12.20;53.20
28358;DHT22;15605;48.114;11.522;2024-03-29T05:53:28;12.20;53.20
28358;DHT22;15605;48.114;11.522;2024-03-29T05:55:59;12.20;53.30
28358;DHT22;15605;48.114;11.522;2024-03-29T06:02:24;12.20;53.30
28358;DHT22;15605;48.114;11.522;2024-03-29T06:12:33;12.30;53.50
28358;DHT22;15605;48.114;11.522;2024-03-29T06:15:05;12.30;53.40
28358;DHT22;15605;48.114;11.522;2024-03-29T06:18:26;12.30;53.50
28358;DHT22;15605;48.114;11.522;2024-03-29T06:21:05;12.20;53.40
28358;DHT22;15605;48.114;11.522;2024-03-29T06:23:36;12.20;53.50
28358;DHT22;15605;48.114;11.522;2024-03-29T06:26:24;12.20;53.60
28358;DHT22;15605;48.114;11.522;2024-03-29T06:32:14;12.20;53.60
28358;DHT22;15605;48.114;11.522;2024-03-29T07:01:57;12.40;53.80
28358;DHT22;15605;48.114;11.522;2024-03-29T07:04:29;12.40;53.70
28358;DHT22;15605;48.114;11.522;2024-03-29T07:07:16;12.50;53.70
28358;DHT22;15605;48.114;11.522;2024-03-29T07:10:15;12.60;53.60
28358;DHT22;15605;48.114;11.522;2024-03-29T07:13:03;12.60;53.40
28358;DHT22;15605;48.114;11.522;2024-03-29T07:15:51;12.70;53.20
28358;DHT22;15605;48.114;11.522;2024-03-29T07:19:23;12.80;53.10
28358;DHT22;15605;48.114;11.522;2024-03-29T07:21:53;12.90;53.00
28358;DHT22;15605;48.114;11.522;2024-03-29T07:24:25;12.90;52.80
28358;DHT22;15605;48.114;11.522;2024-03-29T07:26:55;12.90;52.80
28358;DHT22;15605;48.114;11.522;2024-03-29T07:29:34;12.90;52.70
28358;DHT22;15605;48.114;11.522;2024-03-29T07:35:54;13.00;52.70
28358;DHT22;15605;48.114;11.522;2024-03-29T07:39:03;13.00;52.60
28358;DHT22;15605;48.114;11.522;2024-03-29T07:41:45;13.10;52.60
28358;DHT22;15605;48.114;11.522;2024-03-29T07:44:25;13.10;52.60
28358;DHT22;15605;48.114;11.522;2024-03-29T07:47:04;13.10;52.60
28358;DHT22;15605;48.114;11.522;2024-03-29T07:49:54;13.10;52.60
28358;DHT22;15605;48.114;11.522;2024-03-29T07:52:28;13.10;52.60
28358;DHT22;15605;48.114;11.522;2024-03-29T07:55:12;13.10;52.60
28358;DHT22;15605;48.114;11.522;2024-03-29T07:57:45;13.20;52.60
28358;DHT22;15605;48.114;11.522;2024-03-29T08:00:21;13.10;52.50
28358;DHT22;15605;48.114;11.522;2024-03-29T08:02:53;13.10;52.60
28358;DHT22;15605;48.114;11.522;2024-03-29T08:06:32;13.10;52.70
28358;DHT22;15605;48.114;11.522;2024-03-29T08:09:01;13.10;52.70
28358;DHT22;15605;48.114;11.522;2024-03-29T08:12:04;13.20;52.70
28358;DHT22;15605;48.114;11.522;2024-03-29T08:15:13;13.20;52.60
28358;DHT22;15605;48.114;11.522;2024-03-29T08:17:55;13.20;52.60
28358;DHT22;15605;48.114;11.522;2024-03-29T08:20:30;13.20;52.60
28358;DHT22;15605;48.114;11.522;2024-03-29T08:23:02;13.20;52.70
28358;DHT22;15605;48.114;11.522;2024-03-29T08:25:34;13.20;52.80
28358;DHT22;15605;48.114;11.522;2024-03-29T08:28:05;13.20;52.90
28358;DHT22;15605;48.114;11.522;2024-03-29T08:30:42;13.20;52.90
28358;DHT22;15605;48.114;11.522;2024-03-29T08:33:12;13.20;52.90
28358;DHT22;15605;48.114;11.522;2024-03-29T08:35:44;13.20;52.90
28358;DHT22;15605;48.114;11.522;2024-03-29T08:38:15;13.20;52.90
28358;DHT22;15605;48.114;11.522;2024-03-29T08:40:48;13.20;52.90
28358;DHT22;15605;48.114;11.522;2024-03-29T08:43:20;13.20;53.00
28358;DHT22;15605;48.114;11.522;2024-03-29T08:45:50;13.20;53.00
28358;DHT22;15605;48.114;11.522;2024-03-29T08:48:23;13.20;52.90
28358;DHT22;15605;48.114;11.522;2024-03-29T08:50:54;13.20;52.90
28358;DHT22;15605;48.114;11.522;2024-03-29T08:53:28;13.20;52.90
28358;DHT22;15605;48.114;11.522;2024-03-29T08:55:58;13.20;52.90
28358;DHT22;15605;48.114;11.522;2024-03-29T08:58:31;13.30;52.90
28358;DHT22;15605;48.114;11.522;2024-03-29T09:01:04;13.30;52.90
28358;DHT22;15605;48.114;11.522;2024-03-29T09:03:35;13.30;52.90
28358;DHT22;15605;48.114;11.522;2024-03-29T09:06:13;13.30;52.90
28358;DHT22;15605;48.114;11.522;2024-03-29T09:08:53;13.30;53.00
28358;DHT22;15605;48.114;11.522;2024-03-29T09:11:26;13.30;53.00
28358;DHT22;15605;48.114;11.522;2024-03-29T09:13:58;13.30;53.00
28358;DHT22;15605;48.114;11.522;2024-03-29T09:16:47;13.30;53.00
28358;DHT22;15605;48.114;11.522;2024-03-29T09:19:21;13.30;53.00
28358;DHT22;15605;48.114;11.522;2024-03-29T09:21:59;13.30;53.10
28358;DHT22;15605;48.114;11.522;2024-03-29T09:24:33;13.30;53.60
28358;DHT22;15605;48.114;11.522;2024-03-29T09:27:09;13.30;53.10
28358;DHT22;15605;48.114;11.522;2024-03-29T09:30:07;13.30;53.10
28358;DHT22;15605;48.114;11.522;2024-03-29T09:32:41;13.30;53.00
28358;DHT22;15605;48.114;11.522;2024-03-29T09:35:12;13.30;53.10
28358;DHT22;15605;48.114;11.522;2024-03-29T09:37:45;13.30;53.20
28358;DHT22;15605;48.114;11.522;2024-03-29T09:40:15;13.30;53.10
28358;DHT22;15605;48.114;11.522;2024-03-29T09:43:09;13.30;53.10
28358;DHT22;15605;48.114;11.522;2024-03-29T09:45:42;13.30;53.10
28358;DHT22;15605;48.114;11.522;2024-03-29T09:48:12;13.30;53.20
28358;DHT22;15605;48.114;11.522;2024-03-29T09:50:42;13.30;53.20
28358;DHT22;15605;48.114;11.522;2024-03-29T09:53:12;13.30;53.20
28358;DHT22;15605;48.114;11.522;2024-03-29T09:55:53;13.30;53.20
28358;DHT22;15605;48.114;11.522;2024-03-29T09:58:26;13.30;53.30
28358;DHT22;15605;48.114;11.522;2024-03-29T10:00:58;13.30;53.30
28358;DHT22;15605;48.114;11.522;2024-03-29T10:03:31;13.30;53.50
28358;DHT22;15605;48.114;11.522;2024-03-29T10:06:06;13.30;53.40
28358;DHT22;15605;48.114;11.522;2024-03-29T10:08:49;13.30;53.30
28358;DHT22;15605;48.114;11.522;2024-03-29T10:11:26;13.40;53.40
28358;DHT22;15605;48.114;11.522;2024-03-29T10:13:58;13.30;53.40
28358;DHT22;15605;48.114;11.522;2024-03-29T10:16:29;13.30;53.40
28358;DHT22;15605;48.114;11.522;2024-03-29T10:19:03;13.30;53.50
28358;DHT22;15605;48.114;11.522;2024-03-29T10:21:39;13.30;53.50
28358;DHT22;15605;48.114;11.522;2024-03-29T10:24:18;13.30;53.50
28358;DHT22;15605;48.114;11.522;2024-03-29T10:26:55;13.30;53.50
28358;DHT22;15605;48.114;11.522;2024-03-29T10:29:31;13.30;53.50
28358;DHT22;15605;48.114;11.522;2024-03-29T10:32:11;13.30;53.50
28358;DHT22;15605;48.114;11.522;2024-03-29T10:34:48;13.40;53.50
28358;DHT22;15605;48.114;11.522;2024-03-29T10:37:19;13.40;53.50
28358;DHT22;15605;48.114;11.522;2024-03-29T10:40:11;13.30;53.60
28358;DHT22;15605;48.114;11.522;2024-03-29T10:42:51;13.30;53.60
28358;DHT22;15605;48.114;11.522;2024-03-29T10:45:21;13.30;53.60
28358;DHT22;15605;48.114;11.522;2024-03-29T10:47:53;13.40;53.70
28358;DHT22;15605;48.114;11.522;2024-03-29T10:50:23;13.30;53.70
28358;DHT22;15605;48.114;11.522;2024-03-29T10:53:01;13.30;53.80
28358;DHT22;15605;48.114;11.522;2024-03-29T10:55:37;13.30;53.80
28358;DHT22;15605;48.114;11.522;2024-03-29T10:58:15;13.30;53.90
28358;DHT22;15605;48.114;11.522;2024-03-29T11:01:03;13.30;53.90
28358;DHT22;15605;48.114;11.522;2024-03-29T11:03:54;13.30;53.90
28358;DHT22;15605;48.114;11.522;2024-03-29T11:06:35;13.30;53.90
28358;DHT22;15605;48.114;11.522;2024-03-29T11:09:11;13.30;53.90
28358;DHT22;15605;48.114;11.522;2024-03-29T11:11:46;13.30;53.90
28358;DHT22;15605;48.114;11.522;2024-03-29T11:14:24;13.30;53.80
28358;DHT22;15605;48.114;11.522;2024-03-29T11:16:58;13.30;53.90
28358;DHT22;15605;48.114;11.522;2024-03-29T11:19:30;13.30;53.90
28358;DHT22;15605;48.114;11.522;2024-03-29T11:22:01;13.30;53.90
28358;DHT22;15605;48.114;11.522;2024-03-29T11:24:34;13.30;54.00
28358;DHT22;15605;48.114;11.522;2024-03-29T11:27:10;13.30;54.00
28358;DHT22;15605;48.114;11.522;2024-03-29T11:29:48;13.30;54.00
28358;DHT22;15605;48.114;11.522;2024-03-29T11:32:40;13.30;54.00
28358;DHT22;15605;48.114;11.522;2024-03-29T11:35:39;13.30;54.10
28358;DHT22;15605;48.114;11.522;2024-03-29T11:38:10;13.30;54.10
28358;DHT22;15605;48.114;11.522;2024-03-29T11:40:41;13.30;54.10
28358;DHT22;15605;48.114;11.522;2024-03-29T11:43:23;13.30;54.10
28358;DHT22;15605;48.114;11.522;2024-03-29T11:45:59;13.30;54.10
28358;DHT22;15605;48.114;11.522;2024-03-29T11:48:33;13.30;54.10
28358;DHT22;15605;48.114;11.522;2024-03-29T11:51:03;13.30;54.20
28358;DHT22;15605;48.114;11.522;2024-03-29T11:53:35;13.30;54.30
28358;DHT22;15605;48.114;11.522;2024-03-29T11:56:06;13.30;54.30
28358;DHT22;15605;48.114;11.522;2024-03-29T11:58:42;13.30;54.40
28358;DHT22;15605;48.114;11.522;2024-03-29T12:01:15;13.30;54.40
28358;DHT22;15605;48.114;11.522;2024-03-29T12:03:49;13.30;54.50
28358;DHT22;15605;48.114;11.522;2024-03-29T12:06:25;13.30;54.40
28358;DHT22;15605;48.114;11.522;2024-03-29T12:08:56;13.30;54.40
28358;DHT22;15605;48.114;11.522;2024-03-29T12:11:28;13.30;54.40
28358;DHT22;15605;48.114;11.522;2024-03-29T12:14:00;13.30;54.30
28358;DHT22;15605;48.114;11.522;2024-03-29T12:16:30;13.30;54.30
28358;DHT22;15605;48.114;11.522;2024-03-29T12:19:02;13.30;54.30
28358;DHT22;15605;48.114;11.522;2024-03-29T12:21:35;13.30;54.40
28358;DHT22;15605;48.114;11.522;2024-03-29T12:24:07;13.30;54.40
28358;DHT22;15605;48.114;11.522;2024-03-29T12:26:38;13.30;54.50
28358;DHT22;15605;48.114;11.522;2024-03-29T12:29:08;13.30;54.50
28358;DHT22;15605;48.114;11.522;2024-03-29T12:31:39;13.30;54.50
28358;DHT22;15605;48.114;11.522;2024-03-29T12:34:20;13.30;54.60
28358;DHT22;15605;48.114;11.522;2024-03-29T12:36:57;13.30;54.50
28358;DHT22;15605;48.114;11.522;2024-03-29T12:39:34;13.40;54.40
28358;DHT22;15605;48.114;11.522;2024-03-29T12:42:10;13.30;54.40
28358;DHT22;15605;48.114;11.522;2024-03-29T12:44:59;13.30;54.50
28358;DHT22;15605;48.114;11.522;2024-03-29T12:47:33;13.30;54.50
28358;DHT22;15605;48.114;11.522;2024-03-29T12:50:06;13.30;54.60
28358;DHT22;15605;48.114;11.522;2024-03-29T12:52:43;13.30;54.60
28358;DHT22;15605;48.114;11.522;2024-03-29T12:55:14;13.30;54.50
28358;DHT22;15605;48.114;11.522;2024-03-29T12:57:48;13.30;54.60
28358;DHT22;15605;48.114;11.522;2024-03-29T13:00:19;13.30;54.50
28358;DHT22;15605;48.114;11.522;2024-03-29T13:02:54;13.40;54.60
28358;DHT22;15605;48.114;11.522;2024-03-29T13:05:28;13.40;54.60
28358;DHT22;15605;48.114;11.522;2024-03-29T13:08:12;13.30;54.60
28358;DHT22;15605;48.114;11.522;2024-03-29T13:10:46;13.40;54.60
28358;DHT22;15605;48.114;11.522;2024-03-29T13:13:16;13.30;54.70
28358;DHT22;15605;48.114;11.522;2024-03-29T13:15:46;13.30;54.70
28358;DHT22;15605;48.114;11.522;2024-03-29T13:18:28;13.30;54.80
28358;DHT22;15605;48.114;11.522;2024-03-29T13:21:02;13.30;54.70
28358;DHT22;15605;48.114;11.522;2024-03-29T13:23:36;13.30;54.70
28358;DHT22;15605;48.114;11.522;2024-03-29T13:26:06;13.40;54.80
28358;DHT22;15605;48.114;11.522;2024-03-29T13:28:35;13.30;54.70
28358;DHT22;15605;48.114;11.522;2024-03-29T13:31:12;13.40;54.70
28358;DHT22;15605;48.114;11.522;2024-03-29T13:33:50;13.30;54.80
28358;DHT22;15605;48.114;11.522;2024-03-29T13:36:33;13.30;54.80
28358;DHT22;15605;48.114;11.522;2024-03-29T13:39:06;13.30;54.80
28358;DHT22;15605;48.114;11.522;2024-03-29T13:41:45;13.30;54.80
28358;DHT22;15605;48.114;11.522;2024-03-29T13:44:23;13.30;55.00
28358;DHT22;15605;48.114;11.522;2024-03-29T13:47:11;13.30;54.90
28358;DHT22;15605;48.114;11.522;2024-03-29T13:49:46;13.30;54.90
28358;DHT22;15605;48.114;11.522;2024-03-29T13:52:59;13.30;54.80
28358;DHT22;15605;48.114;11.522;2024-03-29T13:55:52;13.40;54.70
28358;DHT22;15605;48.114;11.522;2024-03-29T13:58:23;13.40;54.70
28358;DHT22;15605;48.114;11.522;2024-03-29T14:00:57;13.40;54.70
28358;DHT22;15605;48.114;11.522;2024-03-29T14:03:33;13.40;54.70
28358;DHT22;15605;48.114;11.522;2024-03-29T14:06:12;13.40;54.90
28358;DHT22;15605;48.114;11.522;2024-03-29T14:08:43;13.30;55.00
28358;DHT22;15605;48.114;11.522;2024-03-29T14:11:26;13.30;55.00
28358;DHT22;15605;48.114;11.522;2024-03-29T14:14:02;13.40;55.10
28358;DHT22;15605;48.114;11.522;2024-03-29T14:16:37;13.30;55.00
28358;DHT22;15605;48.114;11.522;2024-03-29T14:19:18;13.30;55.00
28358;DHT22;15605;48.114;11.522;2024-03-29T14:22:04;13.40;55.00
28358;DHT22;15605;48.114;11.522;2024-03-29T14:24:35;13.40;55.00
28358;DHT22;15605;48.114;11.522;2024-03-29T14:27:10;13.40;55.00
28358;DHT22;15605;48.114;11.522;2024-03-29T14:29:44;13.40;55.00
28358;DHT22;15605;48.114;11.522;2024-03-29T14:32:16;13.40;55.00
28358;DHT22;15605;48.114;11.522;2024-03-29T14:34:49;13.40;55.00
28358;DHT22;15605;48.114;11.522;2024-03-29T14:37:22;13.40;55.00
28358;DHT22;15605;48.114;11.522;2024-03-29T14:39:58;13.40;55.00
28358;DHT22;15605;48.114;11.522;2024-03-29T14:42:34;13.40;55.10
28358;DHT22;15605;48.114;11.522;2024-03-29T14:45:05;13.40;55.20
28358;DHT22;15605;48.114;11.522;2024-03-29T14:47:45;13.40;55.20
28358;DHT22;15605;48.114;11.522;2024-03-29T14:50:26;13.30;55.10
28358;DHT22;15605;48.114;11.522;2024-03-29T14:53:00;13.40;55.10
28358;DHT22;15605;48.114;11.522;2024-03-29T14:55:33;13.40;55.00
28358;DHT22;15605;48.114;11.522;2024-03-29T14:58:10;13.50;54.80
28358;DHT22;15605;48.114;11.522;2024-03-29T15:00:41;13.60;54.80
28358;DHT22;15605;48.114;11.522;2024-03-29T15:03:38;13.60;54.60
28358;DHT22;15605;48.114;11.522;2024-03-29T15:06:09;13.60;54.60
28358;DHT22;15605;48.114;11.522;2024-03-29T15:08:49;13.70;54.60
28358;DHT22;15605;48.114;11.522;2024-03-29T15:11:51;13.70;54.70
28358;DHT22;15605;48.114;11.522;2024-03-29T15:14:24;13.70;54.70
28358;DHT22;15605;48.114;11.522;2024-03-29T15:16:59;13.70;54.70
28358;DHT22;15605;48.114;11.522;2024-03-29T15:19:45;13.70;54.70
28358;DHT22;15605;48.114;11.522;2024-03-29T15:22:23;13.80;54.80
28358;DHT22;15605;48.114;11.522;2024-03-29T15:25:01;13.70;54.70
28358;DHT22;15605;48.114;11.522;2024-03-29T15:27:36;13.80;54.70
28358;DHT22;15605;48.114;11.522;2024-03-29T15:30:26;13.70;54.60
28358;DHT22;15605;48.114;11.522;2024-03-29T15:33:06;13.70;54.60
28358;DHT22;15605;48.114;11.522;2024-03-29T15:35:43;13.70;54.60
28358;DHT22;15605;48.114;11.522;2024-03-29T15:38:15;13.80;54.60
28358;DHT22;15605;48.114;11.522;2024-03-29T15:40:59;13.70;54.50
28358;DHT22;15605;48.114;11.522;2024-03-29T15:43:31;13.80;54.50
28358;DHT22;15605;48.114;11.522;2024-03-29T15:46:09;13.80;54.50
28358;DHT22;15605;48.114;11.522;2024-03-29T15:48:40;13.70;54.30
28358;DHT22;15605;48.114;11.522;2024-03-29T15:51:29;13.70;54.20
28358;DHT22;15605;48.114;11.522;2024-03-29T15:54:01;13.80;54.10
28358;DHT22;15605;48.114;11.522;2024-03-29T15:56:37;13.80;54.00
28358;DHT22;15605;48.114;11.522;2024-03-29T15:59:09;13.90;54.00
28358;DHT22;15605;48.114;11.522;2024-03-29T16:01:42;13.90;54.00
28358;DHT22;15605;48.114;11.522;2024-03-29T16:04:16;13.80;54.10
28358;DHT22;15605;48.114;11.522;2024-03-29T16:06:49;13.80;54.30
28358;DHT22;15605;48.114;11.522;2024-03-29T16:09:23;13.70;54.30
28358;DHT22;15605;48.114;11.522;2024-03-29T16:11:56;13.70;54.40
28358;DHT22;15605;48.114;11.522;2024-03-29T16:14:32;13.60;54.60
28358;DHT22;15605;48.114;11.522;2024-03-29T16:17:46;13.60;54.60
28358;DHT22;15605;48.114;11.522;2024-03-29T16:20:48;13.70;54.60
28358;DHT22;15605;48.114;11.522;2024-03-29T16:23:49;13.60;54.60
28358;DHT22;15605;48.114;11.522;2024-03-29T16:26:24;13.60;54.80
28358;DHT22;15605;48.114;11.522;2024-03-29T16:28:57;13.60;54.80
28358;DHT22;15605;48.114;11.522;2024-03-29T16:31:46;13.50;54.80
28358;DHT22;15605;48.114;11.522;2024-03-29T16:34:20;13.50;55.00
28358;DHT22;15605;48.114;11.522;2024-03-29T16:36:50;13.50;55.10
28358;DHT22;15605;48.114;11.522;2024-03-29T16:39:22;13.50;55.10
28358;DHT22;15605;48.114;11.522;2024-03-29T16:41:53;13.40;55.10
28358;DHT22;15605;48.114;11.522;2024-03-29T16:44:30;13.50;55.20
28358;DHT22;15605;48.114;11.522;2024-03-29T16:47:06;13.50;55.20
28358;DHT22;15605;48.114;11.522;2024-03-29T16:49:41;13.40;55.20
28358;DHT22;15605;48.114;11.522;2024-03-29T16:52:20;13.50;55.20
28358;DHT22;15605;48.114;11.522;2024-03-29T16:54:59;13.50;55.20
28358;DHT22;15605;48.114;11.522;2024-03-29T16:57:30;13.50;55.20
28358;DHT22;15605;48.114;11.522;2024-03-29T17:00:06;13.50;55.20
28358;DHT22;15605;48.114;11.522;2024-03-29T17:02:39;13.50;55.10
28358;DHT22;15605;48.114;11.522;2024-03-29T17:05:49;13.40;55.20
28358;DHT22;15605;48.114;11.522;2024-03-29T17:08:27;13.40;55.30
28358;DHT22;15605;48.114;11.522;2024-03-29T17:11:32;13.40;55.30
28358;DHT22;15605;48.114;11.522;2024-03-29T17:14:14;13.40;55.30
28358;DHT22;15605;48.114;11.522;2024-03-29T17:16:45;13.40;55.40
28358;DHT22;15605;48.114;11.522;2024-03-29T17:19:18;13.40;55.30
28358;DHT22;15605;48.114;11.522;2024-03-29T17:21:50;13.50;55.20
28358;DHT22;15605;48.114;11.522;2024-03-29T17:24:21;13.40;55.30
28358;DHT22;15605;48.114;11.522;2024-03-29T17:26:51;13.40;55.30
28358;DHT22;15605;48.114;11.522;2024-03-29T17:29:23;13.50;55.30
28358;DHT22;15605;48.114;11.522;2024-03-29T17:31:55;13.40;55.20
28358;DHT22;15605;48.114;11.522;2024-03-29T17:34:52;13.40;55.20
28358;DHT22;15605;48.114;11.522;2024-03-29T17:37:28;13.50;55.20
28358;DHT22;15605;48.114;11.522;2024-03-29T17:40:19;13.50;55.20
28358;DHT22;15605;48.114;11.522;2024-03-29T17:42:57;13.50;55.20
28358;DHT22;15605;48.114;11.522;2024-03-29T17:46:02;13.50;55.20
28358;DHT22;15605;48.114;11.522;2024-03-29T17:48:41;13.50;55.20
28358;DHT22;15605;48.114;11.522;2024-03-29T17:51:13;13.50;55.20
28358;DHT22;15605;48.114;11.522;2024-03-29T17:53:44;13.40;55.20
28358;DHT22;15605;48.114;11.522;2024-03-29T17:56:25;13.50;55.20
28358;DHT22;15605;48.114;11.522;2024-03-29T17:59:15;13.40;55.20
28358;DHT22;15605;48.114;11.522;2024-03-29T18:02:11;13.40;55.30
28358;DHT22;15605;48.114;11.522;2024-03-29T18:04:49;13.40;55.20
28358;DHT22;15605;48.114;11.522;2024-03-29T18:07:29;13.40;55.20
28358;DHT22;15605;48.114;11.522;2024-03-29T18:10:15;13.50;55.10
28358;DHT22;15605;48.114;11.522;2024-03-29T18:13:09;13.50;55.10
28358;DHT22;15605;48.114;11.522;2024-03-29T18:15:49;13.50;55.20
28358;DHT22;15605;48.114;11.522;2024-03-29T18:18:35;13.40;55.20
28358;DHT22;15605;48.114;11.522;2024-03-29T18:21:36;13.40;55.20
28358;DHT22;15605;48.114;11.522;2024-03-29T18:24:30;13.40;55.30
28358;DHT22;15605;48.114;11.522;2024-03-29T18:27:06;13.40;55.30
28358;DHT22;15605;48.114;11.522;2024-03-29T18:29:41;13.40;55.20
28358;DHT22;15605;48.114;11.522;2024-03-29T18:32:21;13.40;55.20
28358;DHT22;15605;48.114;11.522;2024-03-29T18:35:39;13.40;55.10
28358;DHT22;15605;48.114;11.522;2024-03-29T18:38:16;13.40;55.10
28358;DHT22;15605;48.114;11.522;2024-03-29T18:40:50;13.40;55.20
28358;DHT22;15605;48.114;11.522;2024-03-29T18:43:20;13.40;55.20
28358;DHT22;15605;48.114;11.522;2024-03-29T18:45:51;13.40;55.10
28358;DHT22;15605;48.114;11.522;2024-03-29T18:48:24;13.40;55.10
28358;DHT22;15605;48.114;11.522;2024-03-29T18:51:01;13.40;55.20
28358;DHT22;15605;48.114;11.522;2024-03-29T18:53:33;13.40;55.20
28358;DHT22;15605;48.114;11.522;2024-03-29T18:56:07;13.40;55.10
28358;DHT22;15605;48.114;11.522;2024-03-29T18:58:37;13.40;55.10
28358;DHT22;15605;48.114;11.522;2024-03-29T19:01:14;13.40;55.10
28358;DHT22;15605;48.114;11.522;2024-03-29T19:03:54;13.50;55.10
28358;DHT22;15605;48.114;11.522;2024-03-29T19:07:18;13.40;55.10
28358;DHT22;15605;48.114;11.522;2024-03-29T19:10:00;13.40;55.00
28358;DHT22;15605;48.114;11.522;2024-03-29T19:12:54;13.40;55.10
28358;DHT22;15605;48.114;11.522;2024-03-29T19:15:32;13.40;55.10
28358;DHT22;15605;48.114;11.522;2024-03-29T19:18:05;13.40;55.10
28358;DHT22;15605;48.114;11.522;2024-03-29T19:20:53;13.40;55.10
28358;DHT22;15605;48.114;11.522;2024-03-29T19:23:24;13.40;55.10
28358;DHT22;15605;48.114;11.522;2024-03-29T19:25:56;13.40;55.10
28358;DHT22;15605;48.114;11.522;2024-03-29T19:28:27;13.40;55.10
28358;DHT22;15605;48.114;11.522;2024-03-29T19:31:03;13.40;55.00
28358;DHT22;15605;48.114;11.522;2024-03-29T19:33:58;13.40;55.00
28358;DHT22;15605;48.114;11.522;2024-03-29T19:36:41;13.40;55.00
28358;DHT22;15605;48.114;11.522;2024-03-29T19:39:11;13.50;54.90
28358;DHT22;15605;48.114;11.522;2024-03-29T19:41:43;13.50;54.90
28358;DHT22;15605;48.114;11.522;2024-03-29T19:44:19;13.50;54.90
28358;DHT22;15605;48.114;11.522;2024-03-29T19:46:52;13.50;54.90
28358;DHT22;15605;48.114;11.522;2024-03-29T19:49:48;13.40;54.80
28358;DHT22;15605;48.114;11.522;2024-03-29T19:52:25;13.50;54.90
28358;DHT22;15605;48.114;11.522;2024-03-29T19:55:13;13.50;54.80
28358;DHT22;15605;48.114;11.522;2024-03-29T19:58:20;13.50;54.80
28358;DHT22;15605;48.114;11.522;2024-03-29T20:00:52;13.50;54.90
28358;DHT22;15605;48.114;11.522;2024-03-29T20:03:24;13.50;54.90
28358;DHT22;15605;48.114;11.522;2024-03-29T20:05:57;13.40;54.80
28358;DHT22;15605;48.114;11.522;2024-03-29T20:08:29;13.40;54.90
28358;DHT22;15605;48.114;11.522;2024-03-29T20:11:11;13.50;54.90
28358;DHT22;15605;48.114;11.522;2024-03-29T20:13:44;13.50;54.80
28358;DHT22;15605;48.114;11.522;2024-03-29T20:16:14;13.50;54.70
28358;DHT22;15605;48.114;11.522;2024-03-29T20:18:47;13.40;54.70
28358;DHT22;15605;48.114;11.522;2024-03-29T20:21:29;13.50;54.70
28358;DHT22;15605;48.114;11.522;2024-03-29T20:24:05;13.50;54.80